createdAt,value
2023-03-20T00:00:52.911Z,1.30
2023-03-20T00:05:56.643Z,1.70
2023-03-20T00:11:00.286Z,1.73
2023-03-20T00:16:07.074Z,0.80
2023-03-20T00:21:18.172Z,1.02
2023-03-20T00:26:26.639Z,0.80
2023-03-20T00:31:33.491Z,0.98
2023-03-20T00:36:37.007Z,0.73
2023-03-20T00:41:45.332Z,1.98
2023-03-20T00:46:53.139Z,1.30
2023-03-20T00:51:56.790Z,0.80
2023-03-20T00:57:03.888Z,1.08
2023-03-20T01:02:09.715Z,1.02
2023-03-20T01:07:16.378Z,1.40
2023-03-20T01:12:19.779Z,2.08
2023-03-20T01:17:25.975Z,1.60
2023-03-20T01:22:29.432Z,1.50
2023-03-20T01:27:33.176Z,1.42
2023-03-20T01:32:38.117Z,1.40
2023-03-20T01:37:42.058Z,1.75
2023-03-20T01:42:47.399Z,1.65
2023-03-20T01:47:52.783Z,2.10
2023-03-20T01:53:03.263Z,1.50
2023-03-20T01:58:10.773Z,1.50
2023-03-20T02:03:17.924Z,1.42
2023-03-20T02:08:46.242Z,1.55
2023-03-20T02:13:52.163Z,1.40
2023-03-20T02:18:59.456Z,1.40
2023-03-20T02:24:35.362Z,1.30
2023-03-20T02:30:26.279Z,2.53
2023-03-20T02:36:13.202Z,1.88
2023-03-20T02:41:27.531Z,1.30
2023-03-20T02:46:40.216Z,1.27
2023-03-20T02:51:59.999Z,2.37
2023-03-20T02:57:10.268Z,1.48
2023-03-20T03:02:18.685Z,1.50
2023-03-20T03:07:25.975Z,2.53
2023-03-20T03:12:34.235Z,1.63
2023-03-20T03:17:39.689Z,1.75
2023-03-20T03:22:43.449Z,1.30
2023-03-20T03:27:55.270Z,1.45
2023-03-20T03:33:13.672Z,1.55
2023-03-20T03:38:29.619Z,1.60
2023-03-20T03:43:44.644Z,1.13
2023-03-20T03:48:53.738Z,1.38
2023-03-20T03:54:01.624Z,0.93
2023-03-20T03:59:11.219Z,1.38
2023-03-20T04:04:17.230Z,1.42
2023-03-20T04:09:20.661Z,0.85
2023-03-20T04:14:25.806Z,1.10
2023-03-20T04:19:29.313Z,1.30
2023-03-20T04:24:32.689Z,1.40
2023-03-20T04:29:39.306Z,1.20
2023-03-20T04:35:06.536Z,1.02
2023-03-20T04:40:39.194Z,1.00
2023-03-20T04:45:44.267Z,1.10
2023-03-20T04:50:48.470Z,1.38
2023-03-20T04:55:56.373Z,0.85
2023-03-20T05:01:01.759Z,0.90
2023-03-20T05:06:30.372Z,1.00
2023-03-20T05:11:34.831Z,0.90
2023-03-20T05:16:56.324Z,0.90
2023-03-20T05:21:59.700Z,0.90
2023-03-20T05:27:38.636Z,1.20
2023-03-20T05:33:09.593Z,1.15
2023-03-20T05:38:37.870Z,1.42
2023-03-20T05:44:07.289Z,1.27
2023-03-20T05:49:35.129Z,0.93
2023-03-20T05:55:33.324Z,3.03
2023-03-20T06:00:57.999Z,1.00
2023-03-20T06:06:38.410Z,1.13
2023-03-20T06:11:42.157Z,1.13
2023-03-20T06:16:46.857Z,1.40
2023-03-20T06:21:52.606Z,1.10
2023-03-20T06:26:58.047Z,1.10
2023-03-20T06:32:05.126Z,1.88
2023-03-20T06:37:11.031Z,1.45
2023-03-20T06:42:16.303Z,1.50
2023-03-20T06:47:20.669Z,2.25
2023-03-20T06:52:26.217Z,1.65
2023-03-20T06:57:49.633Z,1.65
2023-03-20T07:02:55.348Z,1.77
2023-03-20T07:08:01.012Z,1.45
2023-03-20T07:13:04.888Z,1.70
2023-03-20T07:18:10.010Z,0.95
2023-03-20T07:23:15.334Z,1.27
2023-03-20T07:28:19.178Z,1.20
2023-03-20T07:33:28.637Z,1.20
2023-03-20T07:38:33.781Z,2.17
2023-03-20T07:43:45.633Z,3.90
2023-03-20T07:49:11.485Z,1.58
2023-03-20T07:54:19.321Z,1.50
2023-03-20T07:59:24.979Z,1.58
2023-03-20T08:04:28.517Z,3.17
2023-03-20T08:09:33.918Z,2.35
2023-03-20T08:14:38.666Z,1.25
2023-03-20T08:19:42.076Z,1.55
2023-03-20T08:24:47.232Z,1.00
2023-03-20T08:29:50.735Z,1.10
2023-03-20T08:34:55.078Z,1.45
2023-03-20T08:39:59.871Z,1.20
2023-03-20T08:45:03.411Z,1.38
2023-03-20T08:50:08.529Z,1.85
2023-03-20T08:55:14.494Z,1.92
2023-03-20T09:00:20.333Z,2.08
2023-03-20T09:05:23.935Z,1.88
2023-03-20T09:10:28.816Z,3.10
2023-03-20T09:15:32.455Z,2.17
2023-03-20T09:20:36.277Z,4.15
2023-03-20T09:25:41.167Z,2.47
2023-03-20T09:30:45.890Z,2.30
2023-03-20T09:35:49.427Z,2.40
2023-03-20T09:40:57.185Z,2.55
2023-03-20T09:46:12.548Z,3.17
2023-03-20T09:51:25.297Z,3.17
2023-03-20T09:56:31.426Z,3.42
2023-03-20T10:01:48.651Z,3.22
2023-03-20T10:06:52.199Z,2.38
2023-03-20T10:12:10.230Z,3.30
2023-03-20T10:17:25.513Z,3.50
2023-03-20T10:22:35.597Z,4.30
2023-03-20T10:27:44.870Z,5.05
2023-03-20T10:32:53.950Z,3.95
2023-03-20T10:38:11.255Z,3.88
2023-03-20T10:43:21.935Z,4.35
2023-03-20T10:48:31.363Z,4.28
2023-03-20T10:53:43.478Z,4.87
2023-03-20T10:58:55.448Z,4.53
2023-03-20T11:03:59.660Z,5.63
2023-03-20T11:09:13.029Z,6.95
2023-03-20T11:14:21.090Z,6.82
2023-03-20T11:19:25.865Z,5.05
2023-03-20T11:24:41.452Z,5.93
2023-03-20T11:29:49.922Z,6.97
2023-03-20T11:34:57.453Z,6.43
2023-03-20T11:40:06.725Z,5.65
2023-03-20T11:45:18.022Z,6.82
2023-03-20T11:50:32.445Z,7.00
2023-03-20T11:55:36.730Z,5.43
2023-03-20T12:00:43.110Z,4.88
2023-03-20T12:05:46.877Z,5.38
2023-03-20T12:10:56.363Z,5.20
2023-03-20T12:16:04.203Z,5.50
2023-03-20T12:21:11.228Z,4.65
2023-03-20T12:26:17.006Z,5.70
2023-03-20T12:31:27.404Z,5.40
2023-03-20T12:36:34.746Z,3.95
2023-03-20T12:41:46.985Z,3.55
2023-03-20T12:47:04.737Z,4.72
2023-03-20T12:52:17.514Z,3.88
2023-03-20T12:57:28.057Z,4.15
2023-03-20T13:02:43.638Z,5.32
2023-03-20T13:08:01.496Z,3.15
2023-03-20T13:13:18.476Z,3.20
2023-03-20T13:18:32.102Z,4.13
2023-03-20T13:23:44.337Z,3.70
2023-03-20T13:28:56.581Z,4.32
2023-03-20T13:34:10.117Z,2.60
2023-03-20T13:39:19.486Z,3.88
2023-03-20T13:44:28.153Z,2.78
2023-03-20T13:49:38.137Z,2.90
2023-03-20T13:54:59.183Z,2.50
2023-03-20T14:00:12.456Z,2.75
2023-03-20T14:05:19.929Z,1.42
2023-03-20T14:10:41.524Z,3.15
2023-03-20T14:15:54.045Z,2.08
2023-03-20T14:21:00.781Z,2.17
2023-03-20T14:26:11.454Z,2.10
2023-03-20T14:31:26.537Z,3.63
2023-03-20T14:36:44.974Z,2.63
2023-03-20T14:42:21.650Z,2.67
2023-03-20T14:47:35.303Z,1.80
2023-03-20T14:52:56.733Z,2.20
2023-03-20T14:58:06.974Z,2.83
2023-03-20T15:08:23.011Z,3.70
2023-03-20T15:13:28.095Z,3.45
2023-03-20T15:18:32.602Z,5.50
2023-03-20T15:23:37.712Z,3.55
2023-03-20T15:28:43.115Z,3.25
2023-03-20T15:33:47.096Z,3.63
2023-03-20T15:38:52.294Z,2.67
2023-03-20T15:44:02.567Z,2.65
2023-03-20T15:49:06.702Z,3.22
2023-03-20T15:54:15.210Z,3.58
2023-03-20T15:59:22.016Z,6.47
2023-03-20T16:04:27.265Z,3.65
2023-03-20T16:09:32.316Z,4.22
2023-03-20T16:14:36.389Z,3.67
2023-03-20T16:19:40.642Z,4.90
2023-03-20T16:24:47.938Z,3.03
2023-03-20T16:29:53.286Z,2.40
2023-03-20T16:35:02.320Z,4.75
2023-03-20T16:40:16.494Z,3.30
2023-03-20T16:45:29.378Z,3.38
2023-03-20T16:50:36.925Z,3.65
2023-03-20T16:55:47.106Z,4.78
2023-03-20T17:00:53.603Z,2.60
2023-03-20T17:05:59.087Z,2.15
2023-03-20T17:11:12.781Z,2.40
2023-03-20T17:16:20.838Z,2.65
2023-03-20T17:21:24.565Z,3.10
2023-03-20T17:26:30.570Z,2.47
2023-03-20T17:31:34.508Z,2.00
2023-03-20T17:36:38.779Z,2.97
2023-03-20T17:41:43.721Z,3.30
2023-03-20T17:46:57.742Z,2.58
2023-03-20T17:52:04.840Z,2.13
2023-03-20T17:57:19.233Z,2.45
2023-03-20T18:02:22.960Z,3.25
2023-03-20T18:07:26.535Z,4.82
2023-03-20T18:12:34.348Z,3.97
2023-03-20T18:17:37.906Z,3.58
2023-03-20T18:22:41.466Z,2.88
2023-03-20T18:27:46.609Z,2.63
2023-03-20T18:32:50.264Z,3.38
2023-03-20T18:37:53.975Z,5.47
2023-03-20T18:42:59.616Z,2.08
2023-03-20T18:48:04.032Z,2.53
2023-03-20T18:53:09.853Z,2.05
2023-03-20T18:58:21.652Z,3.05
2023-03-20T19:03:28.516Z,3.28
2023-03-20T19:08:35.131Z,2.40
2023-03-20T19:13:40.249Z,3.17
2023-03-20T19:18:44.757Z,3.92
2023-03-20T19:23:48.487Z,2.95
2023-03-20T19:28:54.134Z,2.75
2023-03-20T19:33:57.717Z,2.72
2023-03-20T19:39:04.000Z,2.17
2023-03-20T19:44:09.596Z,2.13
2023-03-20T19:49:19.556Z,2.78
2023-03-20T20:47:43.573Z,4.10
2023-03-20T20:52:47.361Z,5.87
2023-03-20T20:57:53.229Z,5.05
2023-03-20T21:02:59.610Z,4.75
2023-03-20T21:08:03.777Z,5.55
2023-03-20T21:13:09.496Z,3.50
2023-03-20T21:18:13.083Z,4.00
2023-03-20T21:23:16.901Z,4.25
2023-03-20T21:28:22.035Z,5.05
2023-03-20T21:33:26.242Z,4.25
2023-03-20T21:39:02.142Z,3.92
2023-03-20T21:43:56.106Z,4.25
2023-03-20T22:00:35.077Z,5.05
2023-03-20T22:11:34.978Z,5.00
2023-03-20T22:27:38.602Z,4.32
2023-03-20T22:38:23.930Z,4.80
2023-03-20T22:43:59.774Z,4.40
2023-03-20T22:48:25.831Z,3.95
2023-03-20T22:53:31.016Z,5.53
2023-03-20T22:58:34.830Z,3.30
2023-03-20T23:03:42.292Z,6.18
2023-03-20T23:08:52.315Z,5.00
2023-03-20T23:13:59.473Z,3.95
2023-03-20T23:19:04.747Z,7.90
2023-03-20T23:24:57.317Z,4.30
2023-03-20T23:30:14.490Z,5.20
2023-03-20T23:35:19.634Z,6.43
2023-03-20T23:40:23.346Z,5.70
2023-03-20T23:45:27.116Z,4.30
2023-03-20T23:50:45.846Z,5.18
2023-03-20T23:55:55.186Z,4.28
